sensor_id;sensor_type;location;lat;lon;timestamp;temperature;humidity
20740;DHT22;10530;49.968;19.844;2023-10-09T00:02:01;3.30;99.90
20740;DHT22;10530;49.968;19.844;2023-10-09T00:07:08;3.40;99.90
20740;DHT22;10530;49.968;19.844;2023-10-09T00:12:19;3.20;99.90
20740;DHT22;10530;49.968;19.844;2023-10-09T00:17:26;3.20;99.90
20740;DHT22;10530;49.968;19.844;2023-10-09T00:22:33;3.10;99.90
20740;DHT22;10530;49.968;19.844;2023-10-09T00:27:42;3.10;99.90
20740;DHT22;10530;49.968;19.844;2023-10-09T00:32:45;3.00;99.90
20740;DHT22;10530;49.968;19.844;2023-10-09T00:38:15;3.00;99.90
20740;DHT22;10530;49.968;19.844;2023-10-09T00:43:26;2.90;99.90
20740;DHT22;10530;49.968;19.844;2023-10-09T00:48:31;2.90;99.90
20740;DHT22;10530;49.968;19.844;2023-10-09T00:53:40;2.80;99.90
20740;DHT22;10530;49.968;19.844;2023-10-09T00:58:42;2.90;99.90
20740;DHT22;10530;49.968;19.844;2023-10-09T01:03:45;2.80;99.90
20740;DHT22;10530;49.968;19.844;2023-10-09T01:08:48;2.70;99.90
20740;DHT22;10530;49.968;19.844;2023-10-09T01:14:08;2.80;99.90
20740;DHT22;10530;49.968;19.844;2023-10-09T01:19:11;2.80;99.90
20740;DHT22;10530;49.968;19.844;2023-10-09T01:24:26;2.70;99.90
20740;DHT22;10530;49.968;19.844;2023-10-09T01:29:30;2.80;99.90
20740;DHT22;10530;49.968;19.844;2023-10-09T01:34:33;2.70;99.90
20740;DHT22;10530;49.968;19.844;2023-10-09T01:39:57;2.80;99.90
20740;DHT22;10530;49.968;19.844;2023-10-09T01:45:29;2.80;99.90
20740;DHT22;10530;49.968;19.844;2023-10-09T01:50:45;2.80;99.90
20740;DHT22;10530;49.968;19.844;2023-10-09T01:55:51;2.80;99.90
20740;DHT22;10530;49.968;19.844;2023-10-09T02:00:58;2.80;99.90
20740;DHT22;10530;49.968;19.844;2023-10-09T02:06:04;2.80;99.90
20740;DHT22;10530;49.968;19.844;2023-10-09T02:11:20;3.00;99.90
20740;DHT22;10530;49.968;19.844;2023-10-09T02:16:26;2.80;99.90
20740;DHT22;10530;49.968;19.844;2023-10-09T02:21:35;3.00;99.90
20740;DHT22;10530;49.968;19.844;2023-10-09T02:26:44;3.20;99.90
20740;DHT22;10530;49.968;19.844;2023-10-09T02:31:56;3.30;99.90
20740;DHT22;10530;49.968;19.844;2023-10-09T02:37:03;3.50;99.90
20740;DHT22;10530;49.968;19.844;2023-10-09T02:42:15;3.50;99.90
20740;DHT22;10530;49.968;19.844;2023-10-09T02:47:26;3.50;99.90
20740;DHT22;10530;49.968;19.844;2023-10-09T02:52:40;3.60;99.90
20740;DHT22;10530;49.968;19.844;2023-10-09T02:57:44;3.80;99.90
20740;DHT22;10530;49.968;19.844;2023-10-09T03:02:47;3.90;99.90
20740;DHT22;10530;49.968;19.844;2023-10-09T03:07:54;4.10;99.90
20740;DHT22;10530;49.968;19.844;2023-10-09T03:12:57;4.30;99.90
20740;DHT22;10530;49.968;19.844;2023-10-09T03:18:02;4.20;99.90
20740;DHT22;10530;49.968;19.844;2023-10-09T03:23:07;4.20;99.90
20740;DHT22;10530;49.968;19.844;2023-10-09T03:28:12;4.30;99.90
20740;DHT22;10530;49.968;19.844;2023-10-09T03:33:15;4.20;99.90
20740;DHT22;10530;49.968;19.844;2023-10-09T03:38:18;4.30;99.90
20740;DHT22;10530;49.968;19.844;2023-10-09T03:43:21;4.30;99.90
20740;DHT22;10530;49.968;19.844;2023-10-09T03:48:23;4.30;99.90
20740;DHT22;10530;49.968;19.844;2023-10-09T03:53:35;4.40;99.90
20740;DHT22;10530;49.968;19.844;2023-10-09T03:58:46;4.60;99.90
20740;DHT22;10530;49.968;19.844;2023-10-09T04:03:52;4.80;99.90
20740;DHT22;10530;49.968;19.844;2023-10-09T04:09:15;4.90;99.90
20740;DHT22;10530;49.968;19.844;2023-10-09T04:14:21;5.00;99.90
20740;DHT22;10530;49.968;19.844;2023-10-09T04:19:29;5.20;99.90
20740;DHT22;10530;49.968;19.844;2023-10-09T04:24:32;5.30;99.90
20740;DHT22;10530;49.968;19.844;2023-10-09T04:29:43;5.50;99.90
20740;DHT22;10530;49.968;19.844;2023-10-09T04:34:49;5.50;99.90
20740;DHT22;10530;49.968;19.844;2023-10-09T04:39:58;5.50;99.90
20740;DHT22;10530;49.968;19.844;2023-10-09T04:45:13;5.60;99.90
20740;DHT22;10530;49.968;19.844;2023-10-09T04:50:16;5.70;99.90
20740;DHT22;10530;49.968;19.844;2023-10-09T04:55:42;5.70;99.90
20740;DHT22;10530;49.968;19.844;2023-10-09T05:00:56;5.70;99.90
20740;DHT22;10530;49.968;19.844;2023-10-09T05:05:59;5.70;99.90
20740;DHT22;10530;49.968;19.844;2023-10-09T05:11:03;5.80;99.90
20740;DHT22;10530;49.968;19.844;2023-10-09T05:16:16;5.90;99.90
20740;DHT22;10530;49.968;19.844;2023-10-09T05:21:25;6.00;99.90
20740;DHT22;10530;49.968;19.844;2023-10-09T05:26:34;6.10;99.90
20740;DHT22;10530;49.968;19.844;2023-10-09T05:31:49;6.20;99.90
20740;DHT22;10530;49.968;19.844;2023-10-09T05:37:18;6.10;99.90
20740;DHT22;10530;49.968;19.844;2023-10-09T05:42:25;6.10;99.90
20740;DHT22;10530;49.968;19.844;2023-10-09T05:47:47;6.10;99.90
20740;DHT22;10530;49.968;19.844;2023-10-09T05:52:57;6.20;99.90
20740;DHT22;10530;49.968;19.844;2023-10-09T05:58:19;6.20;99.90
20740;DHT22;10530;49.968;19.844;2023-10-09T06:03:27;6.20;99.90
20740;DHT22;10530;49.968;19.844;2023-10-09T06:08:50;6.30;99.90
20740;DHT22;10530;49.968;19.844;2023-10-09T06:14:24;6.40;99.90
20740;DHT22;10530;49.968;19.844;2023-10-09T06:19:33;6.60;99.90
20740;DHT22;10530;49.968;19.844;2023-10-09T06:24:45;6.70;99.90
20740;DHT22;10530;49.968;19.844;2023-10-09T06:29:58;6.80;99.90
20740;DHT22;10530;49.968;19.844;2023-10-09T06:35:19;6.80;99.90
20740;DHT22;10530;49.968;19.844;2023-10-09T06:40:24;6.70;99.90
20740;DHT22;10530;49.968;19.844;2023-10-09T06:45:39;6.80;99.90
20740;DHT22;10530;49.968;19.844;2023-10-09T06:50:48;6.90;99.90
20740;DHT22;10530;49.968;19.844;2023-10-09T06:56:10;7.00;99.90
20740;DHT22;10530;49.968;19.844;2023-10-09T07:01:25;6.90;99.90
20740;DHT22;10530;49.968;19.844;2023-10-09T07:06:47;6.90;99.90
20740;DHT22;10530;49.968;19.844;2023-10-09T07:11:51;6.80;99.90
20740;DHT22;10530;49.968;19.844;2023-10-09T07:17:14;6.80;99.90
20740;DHT22;10530;49.968;19.844;2023-10-09T07:22:46;6.60;99.90
20740;DHT22;10530;49.968;19.844;2023-10-09T07:28:16;6.60;99.90
20740;DHT22;10530;49.968;19.844;2023-10-09T07:33:31;6.60;99.90
20740;DHT22;10530;49.968;19.844;2023-10-09T07:38:53;6.50;99.90
20740;DHT22;10530;49.968;19.844;2023-10-09T07:43:57;6.60;99.90
20740;DHT22;10530;49.968;19.844;2023-10-09T07:49:05;6.60;99.90
20740;DHT22;10530;49.968;19.844;2023-10-09T07:54:28;6.50;99.90
20740;DHT22;10530;49.968;19.844;2023-10-09T07:59:38;6.60;99.90
20740;DHT22;10530;49.968;19.844;2023-10-09T08:04:43;6.50;99.90
20740;DHT22;10530;49.968;19.844;2023-10-09T08:09:52;6.50;99.90
20740;DHT22;10530;49.968;19.844;2023-10-09T08:15:17;6.50;99.90
20740;DHT22;10530;49.968;19.844;2023-10-09T08:20:22;6.50;99.90
20740;DHT22;10530;49.968;19.844;2023-10-09T08:25:28;6.60;99.90
20740;DHT22;10530;49.968;19.844;2023-10-09T08:30:50;6.50;99.90
20740;DHT22;10530;49.968;19.844;2023-10-09T08:36:07;6.60;99.90
20740;DHT22;10530;49.968;19.844;2023-10-09T08:41:12;6.40;99.90
20740;DHT22;10530;49.968;19.844;2023-10-09T08:46:23;6.50;99.90
20740;DHT22;10530;49.968;19.844;2023-10-09T08:51:29;6.60;99.90
20740;DHT22;10530;49.968;19.844;2023-10-09T08:56:33;6.70;99.90
20740;DHT22;10530;49.968;19.844;2023-10-09T09:01:35;7.30;99.90
20740;DHT22;10530;49.968;19.844;2023-10-09T09:06:39;9.00;99.90
20740;DHT22;10530;49.968;19.844;2023-10-09T09:11:43;8.30;99.90
20740;DHT22;10530;49.968;19.844;2023-10-09T09:16:55;8.60;99.90
20740;DHT22;10530;49.968;19.844;2023-10-09T09:21:59;8.30;99.90
20740;DHT22;10530;49.968;19.844;2023-10-09T09:27:03;8.50;99.90
20740;DHT22;10530;49.968;19.844;2023-10-09T09:32:15;8.20;99.90
20740;DHT22;10530;49.968;19.844;2023-10-09T09:37:21;7.90;99.90
20740;DHT22;10530;49.968;19.844;2023-10-09T09:42:32;7.90;99.90
20740;DHT22;10530;49.968;19.844;2023-10-09T09:47:37;8.10;99.90
20740;DHT22;10530;49.968;19.844;2023-10-09T09:52:40;8.10;99.90
20740;DHT22;10530;49.968;19.844;2023-10-09T09:57:48;8.10;99.90
20740;DHT22;10530;49.968;19.844;2023-10-09T10:03:01;8.10;99.90
20740;DHT22;10530;49.968;19.844;2023-10-09T10:08:08;7.90;99.90
20740;DHT22;10530;49.968;19.844;2023-10-09T10:13:16;7.70;99.90
20740;DHT22;10530;49.968;19.844;2023-10-09T10:18:33;7.60;99.90
20740;DHT22;10530;49.968;19.844;2023-10-09T10:23:37;7.80;99.90
20740;DHT22;10530;49.968;19.844;2023-10-09T10:28:40;7.70;99.90
20740;DHT22;10530;49.968;19.844;2023-10-09T10:39:05;7.50;99.90
20740;DHT22;10530;49.968;19.844;2023-10-09T10:44:31;7.60;99.90
20740;DHT22;10530;49.968;19.844;2023-10-09T10:49:43;7.70;99.90
20740;DHT22;10530;49.968;19.844;2023-10-09T10:54:46;7.90;99.90
20740;DHT22;10530;49.968;19.844;2023-10-09T10:59:49;7.90;99.90
20740;DHT22;10530;49.968;19.844;2023-10-09T11:05:05;7.80;99.90
20740;DHT22;10530;49.968;19.844;2023-10-09T11:10:25;7.90;99.90
20740;DHT22;10530;49.968;19.844;2023-10-09T11:15:38;7.60;99.90
20740;DHT22;10530;49.968;19.844;2023-10-09T11:20:56;7.90;99.90
20740;DHT22;10530;49.968;19.844;2023-10-09T11:26:07;7.80;99.90
20740;DHT22;10530;49.968;19.844;2023-10-09T11:31:29;7.70;99.90
20740;DHT22;10530;49.968;19.844;2023-10-09T11:36:34;7.70;99.90
20740;DHT22;10530;49.968;19.844;2023-10-09T11:41:40;7.60;99.90
20740;DHT22;10530;49.968;19.844;2023-10-09T11:47:02;7.60;99.90
20740;DHT22;10530;49.968;19.844;2023-10-09T11:52:20;7.60;99.90
20740;DHT22;10530;49.968;19.844;2023-10-09T11:57:38;7.50;99.90
20740;DHT22;10530;49.968;19.844;2023-10-09T12:02:41;7.70;99.90
20740;DHT22;10530;49.968;19.844;2023-10-09T12:07:47;7.50;99.90
20740;DHT22;10530;49.968;19.844;2023-10-09T12:12:57;7.80;99.90
20740;DHT22;10530;49.968;19.844;2023-10-09T12:18:00;7.60;99.90
20740;DHT22;10530;49.968;19.844;2023-10-09T12:23:04;7.70;99.90
20740;DHT22;10530;49.968;19.844;2023-10-09T12:28:07;7.60;99.90
20740;DHT22;10530;49.968;19.844;2023-10-09T12:33:14;7.70;99.90
20740;DHT22;10530;49.968;19.844;2023-10-09T12:38:18;7.60;99.90
20740;DHT22;10530;49.968;19.844;2023-10-09T12:43:25;7.60;99.90
20740;DHT22;10530;49.968;19.844;2023-10-09T12:48:30;7.60;99.90
20740;DHT22;10530;49.968;19.844;2023-10-09T12:53:34;7.60;99.90
20740;DHT22;10530;49.968;19.844;2023-10-09T12:58:40;7.60;99.90
20740;DHT22;10530;49.968;19.844;2023-10-09T13:03:56;7.60;99.90
20740;DHT22;10530;49.968;19.844;2023-10-09T13:08:59;7.70;99.90
20740;DHT22;10530;49.968;19.844;2023-10-09T13:14:02;7.70;99.90
20740;DHT22;10530;49.968;19.844;2023-10-09T13:19:14;7.70;99.90
20740;DHT22;10530;49.968;19.844;2023-10-09T13:24:17;7.70;99.90
20740;DHT22;10530;49.968;19.844;2023-10-09T13:29:20;7.70;99.90
20740;DHT22;10530;49.968;19.844;2023-10-09T13:34:25;7.70;99.90
20740;DHT22;10530;49.968;19.844;2023-10-09T13:39:31;7.80;99.90
20740;DHT22;10530;49.968;19.844;2023-10-09T13:44:40;7.80;99.90
20740;DHT22;10530;49.968;19.844;2023-10-09T13:49:45;7.70;99.90
20740;DHT22;10530;49.968;19.844;2023-10-09T13:54:48;7.70;99.90
20740;DHT22;10530;49.968;19.844;2023-10-09T13:59:52;7.60;99.90
20740;DHT22;10530;49.968;19.844;2023-10-09T14:04:55;7.70;99.90
20740;DHT22;10530;49.968;19.844;2023-10-09T14:10:00;7.70;99.90
20740;DHT22;10530;49.968;19.844;2023-10-09T14:15:32;7.70;99.90
20740;DHT22;10530;49.968;19.844;2023-10-09T14:20:36;7.70;99.90
20740;DHT22;10530;49.968;19.844;2023-10-09T14:25:40;7.60;99.90
20740;DHT22;10530;49.968;19.844;2023-10-09T14:30:43;7.90;99.90
20740;DHT22;10530;49.968;19.844;2023-10-09T14:35:46;7.80;99.90
20740;DHT22;10530;49.968;19.844;2023-10-09T14:40:51;7.70;99.90
20740;DHT22;10530;49.968;19.844;2023-10-09T14:45:54;7.60;99.90
20740;DHT22;10530;49.968;19.844;2023-10-09T14:50:58;7.80;99.90
20740;DHT22;10530;49.968;19.844;2023-10-09T14:56:07;7.70;99.90
20740;DHT22;10530;49.968;19.844;2023-10-09T15:01:11;7.80;99.90
20740;DHT22;10530;49.968;19.844;2023-10-09T15:06:17;7.70;99.90
20740;DHT22;10530;49.968;19.844;2023-10-09T15:11:25;7.70;99.90
20740;DHT22;10530;49.968;19.844;2023-10-09T15:16:27;7.80;99.90
20740;DHT22;10530;49.968;19.844;2023-10-09T15:21:33;7.60;99.90
20740;DHT22;10530;49.968;19.844;2023-10-09T15:26:37;7.60;99.90
20740;DHT22;10530;49.968;19.844;2023-10-09T15:31:40;7.60;99.90
20740;DHT22;10530;49.968;19.844;2023-10-09T15:36:45;7.50;99.90
20740;DHT22;10530;49.968;19.844;2023-10-09T15:41:50;7.50;99.90
20740;DHT22;10530;49.968;19.844;2023-10-09T15:46:53;7.60;99.90
20740;DHT22;10530;49.968;19.844;2023-10-09T15:52:02;7.60;99.90
20740;DHT22;10530;49.968;19.844;2023-10-09T15:57:05;7.60;99.90
20740;DHT22;10530;49.968;19.844;2023-10-09T16:02:15;7.60;99.90
20740;DHT22;10530;49.968;19.844;2023-10-09T16:07:19;7.60;99.90
20740;DHT22;10530;49.968;19.844;2023-10-09T16:12:22;7.60;99.90
20740;DHT22;10530;49.968;19.844;2023-10-09T16:17:26;7.60;99.90
20740;DHT22;10530;49.968;19.844;2023-10-09T16:22:29;7.60;99.90
20740;DHT22;10530;49.968;19.844;2023-10-09T16:27:32;7.60;99.90
20740;DHT22;10530;49.968;19.844;2023-10-09T16:32:35;7.50;99.90
20740;DHT22;10530;49.968;19.844;2023-10-09T16:37:40;7.50;99.90
20740;DHT22;10530;49.968;19.844;2023-10-09T16:42:43;7.50;99.90
20740;DHT22;10530;49.968;19.844;2023-10-09T16:47:49;7.60;99.90
20740;DHT22;10530;49.968;19.844;2023-10-09T16:52:57;7.70;99.90
20740;DHT22;10530;49.968;19.844;2023-10-09T16:58:01;7.80;99.90
20740;DHT22;10530;49.968;19.844;2023-10-09T17:03:04;7.80;99.90
20740;DHT22;10530;49.968;19.844;2023-10-09T17:08:10;7.80;99.90
20740;DHT22;10530;49.968;19.844;2023-10-09T17:13:13;7.80;99.90
20740;DHT22;10530;49.968;19.844;2023-10-09T17:18:23;7.70;99.90
20740;DHT22;10530;49.968;19.844;2023-10-09T17:23:27;7.90;99.90
20740;DHT22;10530;49.968;19.844;2023-10-09T17:28:30;7.80;99.90
20740;DHT22;10530;49.968;19.844;2023-10-09T17:33:33;7.80;99.90
20740;DHT22;10530;49.968;19.844;2023-10-09T17:38:37;7.90;99.90
20740;DHT22;10530;49.968;19.844;2023-10-09T17:43:40;7.90;99.90
20740;DHT22;10530;49.968;19.844;2023-10-09T17:48:44;7.90;99.90
20740;DHT22;10530;49.968;19.844;2023-10-09T17:53:48;7.90;99.90
20740;DHT22;10530;49.968;19.844;2023-10-09T17:58:52;7.90;99.90
20740;DHT22;10530;49.968;19.844;2023-10-09T18:03:55;7.90;99.90
20740;DHT22;10530;49.968;19.844;2023-10-09T18:09:02;7.90;99.90
20740;DHT22;10530;49.968;19.844;2023-10-09T18:14:18;7.90;99.90
20740;DHT22;10530;49.968;19.844;2023-10-09T18:19:21;8.00;99.90
20740;DHT22;10530;49.968;19.844;2023-10-09T18:24:24;8.00;99.90
20740;DHT22;10530;49.968;19.844;2023-10-09T18:29:26;8.00;99.90
20740;DHT22;10530;49.968;19.844;2023-10-09T18:34:31;8.00;99.90
20740;DHT22;10530;49.968;19.844;2023-10-09T18:39:34;8.10;99.90
20740;DHT22;10530;49.968;19.844;2023-10-09T18:44:41;8.10;99.90
20740;DHT22;10530;49.968;19.844;2023-10-09T18:49:46;8.00;99.90
20740;DHT22;10530;49.968;19.844;2023-10-09T18:54:52;8.00;99.90
20740;DHT22;10530;49.968;19.844;2023-10-09T18:59:55;8.00;99.90
20740;DHT22;10530;49.968;19.844;2023-10-09T19:04:58;8.10;99.90
20740;DHT22;10530;49.968;19.844;2023-10-09T19:10:02;8.10;99.90
20740;DHT22;10530;49.968;19.844;2023-10-09T19:15:05;8.10;99.90
20740;DHT22;10530;49.968;19.844;2023-10-09T19:20:12;8.00;99.90
20740;DHT22;10530;49.968;19.844;2023-10-09T19:25:19;7.90;99.90
20740;DHT22;10530;49.968;19.844;2023-10-09T19:30:29;8.00;99.90
20740;DHT22;10530;49.968;19.844;2023-10-09T19:35:34;8.00;99.90
20740;DHT22;10530;49.968;19.844;2023-10-09T19:40:36;8.00;99.90
20740;DHT22;10530;49.968;19.844;2023-10-09T19:45:40;8.00;99.90
20740;DHT22;10530;49.968;19.844;2023-10-09T19:50:43;8.00;99.90
20740;DHT22;10530;49.968;19.844;2023-10-09T19:55:46;8.00;99.90
20740;DHT22;10530;49.968;19.844;2023-10-09T20:00:49;8.10;99.90
20740;DHT22;10530;49.968;19.844;2023-10-09T20:05:51;8.00;99.90
20740;DHT22;10530;49.968;19.844;2023-10-09T20:10:56;8.10;99.90
20740;DHT22;10530;49.968;19.844;2023-10-09T20:15:59;8.10;99.90
20740;DHT22;10530;49.968;19.844;2023-10-09T20:21:02;8.10;99.90
20740;DHT22;10530;49.968;19.844;2023-10-09T20:26:09;8.10;99.90
20740;DHT22;10530;49.968;19.844;2023-10-09T20:31:18;8.10;99.90
20740;DHT22;10530;49.968;19.844;2023-10-09T20:36:21;8.00;99.90
20740;DHT22;10530;49.968;19.844;2023-10-09T20:41:30;8.00;99.90
20740;DHT22;10530;49.968;19.844;2023-10-09T20:46:34;8.00;99.90
20740;DHT22;10530;49.968;19.844;2023-10-09T20:51:37;8.00;99.90
20740;DHT22;10530;49.968;19.844;2023-10-09T20:56:58;8.10;99.90
20740;DHT22;10530;49.968;19.844;2023-10-09T21:02:00;8.00;99.90
20740;DHT22;10530;49.968;19.844;2023-10-09T21:07:06;8.00;99.90
20740;DHT22;10530;49.968;19.844;2023-10-09T21:12:08;8.10;99.90
20740;DHT22;10530;49.968;19.844;2023-10-09T21:17:11;8.10;99.90
20740;DHT22;10530;49.968;19.844;2023-10-09T21:22:18;8.00;99.90
20740;DHT22;10530;49.968;19.844;2023-10-09T21:27:21;8.10;99.90
20740;DHT22;10530;49.968;19.844;2023-10-09T21:32:23;8.10;99.90
20740;DHT22;10530;49.968;19.844;2023-10-09T21:37:29;8.10;99.90
20740;DHT22;10530;49.968;19.844;2023-10-09T21:42:32;8.00;99.90
20740;DHT22;10530;49.968;19.844;2023-10-09T21:47:35;8.10;99.90
20740;DHT22;10530;49.968;19.844;2023-10-09T21:52:38;8.20;99.90
20740;DHT22;10530;49.968;19.844;2023-10-09T21:57:41;8.20;99.90
20740;DHT22;10530;49.968;19.844;2023-10-09T22:02:46;8.30;99.90
20740;DHT22;10530;49.968;19.844;2023-10-09T22:07:52;8.20;99.90
20740;DHT22;10530;49.968;19.844;2023-10-09T22:12:55;8.20;99.90
20740;DHT22;10530;49.968;19.844;2023-10-09T22:17:58;8.20;99.90
20740;DHT22;10530;49.968;19.844;2023-10-09T22:23:03;8.10;99.90
20740;DHT22;10530;49.968;19.844;2023-10-09T22:28:13;8.10;99.90
20740;DHT22;10530;49.968;19.844;2023-10-09T22:33:17;8.20;99.90
20740;DHT22;10530;49.968;19.844;2023-10-09T22:38:24;8.10;99.90
20740;DHT22;10530;49.968;19.844;2023-10-09T22:43:28;8.10;99.90
20740;DHT22;10530;49.968;19.844;2023-10-09T22:48:30;8.00;99.90
20740;DHT22;10530;49.968;19.844;2023-10-09T22:53:35;8.10;99.90
20740;DHT22;10530;49.968;19.844;2023-10-09T22:58:49;8.20;99.90
20740;DHT22;10530;49.968;19.844;2023-10-09T23:03:54;8.10;99.90
20740;DHT22;10530;49.968;19.844;2023-10-09T23:09:18;8.10;99.90
20740;DHT22;10530;49.968;19.844;2023-10-09T23:14:33;8.00;99.90
20740;DHT22;10530;49.968;19.844;2023-10-09T23:19:38;7.90;99.90
20740;DHT22;10530;49.968;19.844;2023-10-09T23:24:49;8.00;99.90
20740;DHT22;10530;49.968;19.844;2023-10-09T23:29:53;8.00;99.90
20740;DHT22;10530;49.968;19.844;2023-10-09T23:34:55;8.00;99.90
20740;DHT22;10530;49.968;19.844;2023-10-09T23:39:58;8.00;99.90
20740;DHT22;10530;49.968;19.844;2023-10-09T23:45:01;8.00;99.90
20740;DHT22;10530;49.968;19.844;2023-10-09T23:50:08;8.00;99.90
20740;DHT22;10530;49.968;19.844;2023-10-09T23:55:19;8.10;99.90
